Portada
METAR-TAF:

METAR-TAF

Aeroports :

Zaqatala, Azerbaidjan

latitud: 41-33-44N, longitud: 46-40-02E, altitud: 330 m

Observació

L'informe es va fer fa 48 minuts, a les 15:00 UTC
Vent 4 kt del Nord-Est
Temperatura 33°C
Humitat 41%
Pressió 1013 hPa
Visibilitat 10 km o més
Escasses núvols a una alçada de 5000 ft
Cel ennuvolat a una alçada de 10000 ft

METAR: UBBY 211500Z 04004KT 9999 FEW050 BKN100 33/18 Q1013 R33/////// NOSIG RMK MT OP

Hora: 19:48 (15:48 UTC)

Pronòstic

L'informe es va fer fa 1 hora i 48 minuts, a les 14:00 UTC
Pronòstic vàlid del 21 a les 15 UTC al 21 a les 24 UTC
Vent 6 kt del Est
Visibilitat 10 km o més
Escasses núvols a una alçada de 4000 ft
Núvols disperses a una alçada de 8000 ft

TAF: UBBY 211400Z 2115/2124 10006KT 9999 FEW040 SCT080

Observacions i pronòstics meteorològics de més de 4000 aeroports (METAR i TAF).

Les estacions disponibles són els punts grocs i vermells al mapa.

Posi el ratolí al punt desitjat per veure el nom de l'estació.

Feu clic per veure les observacions i els pronòstics meteorològics.

Per canviar el mapa: feu clic els botons verds amb una creu de color negre per apropar; al botó verd amb un guió per allunyar la imatge; o en les fletxes verdes per a mapes adjacents.


METAR-TAF: